sensor_id;sensor_type;location;lat;lon;timestamp;temperature;humidity
15262;DHT22;7733;51.554;13.590;2023-12-14T00:02:07;7.80;99.90
15262;DHT22;7733;51.554;13.590;2023-12-14T00:04:32;7.80;99.90
15262;DHT22;7733;51.554;13.590;2023-12-14T00:06:58;7.80;99.90
15262;DHT22;7733;51.554;13.590;2023-12-14T00:09:24;7.90;99.90
15262;DHT22;7733;51.554;13.590;2023-12-14T00:11:49;7.90;99.90
15262;DHT22;7733;51.554;13.590;2023-12-14T00:14:15;7.90;99.90
15262;DHT22;7733;51.554;13.590;2023-12-14T00:16:41;7.80;99.90
15262;DHT22;7733;51.554;13.590;2023-12-14T00:19:07;7.80;99.90
15262;DHT22;7733;51.554;13.590;2023-12-14T00:21:32;7.80;99.90
15262;DHT22;7733;51.554;13.590;2023-12-14T00:23:58;7.80;99.90
15262;DHT22;7733;51.554;13.590;2023-12-14T00:26:24;7.80;99.90
15262;DHT22;7733;51.554;13.590;2023-12-14T00:28:49;7.90;99.90
15262;DHT22;7733;51.554;13.590;2023-12-14T00:31:15;7.80;99.90
15262;DHT22;7733;51.554;13.590;2023-12-14T00:33:42;7.80;99.90
15262;DHT22;7733;51.554;13.590;2023-12-14T00:36:08;7.80;99.90
15262;DHT22;7733;51.554;13.590;2023-12-14T00:38:34;7.80;99.90
15262;DHT22;7733;51.554;13.590;2023-12-14T00:41:00;7.80;99.90
15262;DHT22;7733;51.554;13.590;2023-12-14T00:43:25;7.80;99.90
15262;DHT22;7733;51.554;13.590;2023-12-14T00:45:51;7.70;99.90
15262;DHT22;7733;51.554;13.590;2023-12-14T00:48:17;7.70;99.90
15262;DHT22;7733;51.554;13.590;2023-12-14T00:50:43;7.70;99.90
15262;DHT22;7733;51.554;13.590;2023-12-14T00:53:09;7.60;99.90
15262;DHT22;7733;51.554;13.590;2023-12-14T00:55:35;7.70;99.90
15262;DHT22;7733;51.554;13.590;2023-12-14T00:58:00;7.70;99.90
15262;DHT22;7733;51.554;13.590;2023-12-14T01:00:26;7.70;99.90
15262;DHT22;7733;51.554;13.590;2023-12-14T01:02:52;7.70;99.90
15262;DHT22;7733;51.554;13.590;2023-12-14T01:05:17;7.80;99.90
15262;DHT22;7733;51.554;13.590;2023-12-14T01:07:43;7.80;99.90
15262;DHT22;7733;51.554;13.590;2023-12-14T01:10:09;7.90;99.90
15262;DHT22;7733;51.554;13.590;2023-12-14T01:12:35;7.80;99.90
15262;DHT22;7733;51.554;13.590;2023-12-14T01:15:00;7.70;99.90
15262;DHT22;7733;51.554;13.590;2023-12-14T01:17:26;7.70;99.90
15262;DHT22;7733;51.554;13.590;2023-12-14T01:19:53;7.60;99.90
15262;DHT22;7733;51.554;13.590;2023-12-14T01:22:18;7.60;99.90
15262;DHT22;7733;51.554;13.590;2023-12-14T01:24:44;7.50;99.90
15262;DHT22;7733;51.554;13.590;2023-12-14T01:27:10;7.50;99.90
15262;DHT22;7733;51.554;13.590;2023-12-14T01:29:39;7.60;99.90
15262;DHT22;7733;51.554;13.590;2023-12-14T01:32:05;7.50;99.90
15262;DHT22;7733;51.554;13.590;2023-12-14T01:34:31;7.40;99.90
15262;DHT22;7733;51.554;13.590;2023-12-14T01:36:56;7.40;99.90
15262;DHT22;7733;51.554;13.590;2023-12-14T01:39:22;7.40;99.90
15262;DHT22;7733;51.554;13.590;2023-12-14T01:41:48;7.30;99.90
15262;DHT22;7733;51.554;13.590;2023-12-14T01:44:14;7.30;99.90
15262;DHT22;7733;51.554;13.590;2023-12-14T01:46:40;7.30;99.90
15262;DHT22;7733;51.554;13.590;2023-12-14T01:49:06;7.40;99.90
15262;DHT22;7733;51.554;13.590;2023-12-14T01:51:31;7.40;99.90
15262;DHT22;7733;51.554;13.590;2023-12-14T01:53:59;7.30;99.90
15262;DHT22;7733;51.554;13.590;2023-12-14T01:56:24;7.20;99.90
15262;DHT22;7733;51.554;13.590;2023-12-14T01:58:50;7.30;99.90
15262;DHT22;7733;51.554;13.590;2023-12-14T02:01:27;7.30;99.90
15262;DHT22;7733;51.554;13.590;2023-12-14T02:04:01;7.40;99.90
15262;DHT22;7733;51.554;13.590;2023-12-14T02:06:27;7.30;99.90
15262;DHT22;7733;51.554;13.590;2023-12-14T02:08:53;7.20;99.90
15262;DHT22;7733;51.554;13.590;2023-12-14T02:11:19;7.10;99.90
15262;DHT22;7733;51.554;13.590;2023-12-14T02:13:44;7.10;99.90
15262;DHT22;7733;51.554;13.590;2023-12-14T02:16:10;7.10;99.90
15262;DHT22;7733;51.554;13.590;2023-12-14T02:18:37;7.00;99.90
15262;DHT22;7733;51.554;13.590;2023-12-14T02:21:03;7.00;99.90
15262;DHT22;7733;51.554;13.590;2023-12-14T02:23:29;7.00;99.90
15262;DHT22;7733;51.554;13.590;2023-12-14T02:25:55;7.00;99.90
15262;DHT22;7733;51.554;13.590;2023-12-14T02:28:20;7.00;99.90
15262;DHT22;7733;51.554;13.590;2023-12-14T02:30:46;7.00;99.90
15262;DHT22;7733;51.554;13.590;2023-12-14T02:33:12;7.00;99.90
15262;DHT22;7733;51.554;13.590;2023-12-14T02:35:38;6.90;99.90
15262;DHT22;7733;51.554;13.590;2023-12-14T02:38:03;6.90;99.90
15262;DHT22;7733;51.554;13.590;2023-12-14T02:40:29;6.80;99.90
15262;DHT22;7733;51.554;13.590;2023-12-14T02:42:55;6.80;99.90
15262;DHT22;7733;51.554;13.590;2023-12-14T02:45:20;6.90;99.90
15262;DHT22;7733;51.554;13.590;2023-12-14T02:47:46;6.90;99.90
15262;DHT22;7733;51.554;13.590;2023-12-14T02:50:13;6.80;99.90
15262;DHT22;7733;51.554;13.590;2023-12-14T02:52:39;6.80;99.90
15262;DHT22;7733;51.554;13.590;2023-12-14T02:55:05;6.90;99.90
15262;DHT22;7733;51.554;13.590;2023-12-14T02:57:31;6.90;99.90
15262;DHT22;7733;51.554;13.590;2023-12-14T02:59:57;6.90;99.90
15262;DHT22;7733;51.554;13.590;2023-12-14T03:02:22;6.90;99.90
15262;DHT22;7733;51.554;13.590;2023-12-14T03:04:48;7.00;99.90
15262;DHT22;7733;51.554;13.590;2023-12-14T03:07:14;6.90;99.90
15262;DHT22;7733;51.554;13.590;2023-12-14T03:09:40;6.90;99.90
15262;DHT22;7733;51.554;13.590;2023-12-14T03:12:12;6.90;99.90
15262;DHT22;7733;51.554;13.590;2023-12-14T03:14:38;6.90;99.90
15262;DHT22;7733;51.554;13.590;2023-12-14T03:17:06;6.90;99.90
15262;DHT22;7733;51.554;13.590;2023-12-14T03:19:40;7.00;99.90
15262;DHT22;7733;51.554;13.590;2023-12-14T03:22:07;7.00;99.90
15262;DHT22;7733;51.554;13.590;2023-12-14T03:24:34;7.00;99.90
15262;DHT22;7733;51.554;13.590;2023-12-14T03:27:01;7.00;99.90
15262;DHT22;7733;51.554;13.590;2023-12-14T03:29:28;7.00;99.90
15262;DHT22;7733;51.554;13.590;2023-12-14T03:31:57;6.80;99.90
15262;DHT22;7733;51.554;13.590;2023-12-14T03:34:24;6.70;99.90
15262;DHT22;7733;51.554;13.590;2023-12-14T03:36:50;6.70;99.90
15262;DHT22;7733;51.554;13.590;2023-12-14T03:39:16;6.60;99.90
15262;DHT22;7733;51.554;13.590;2023-12-14T03:41:43;6.60;99.90
15262;DHT22;7733;51.554;13.590;2023-12-14T03:44:10;6.70;99.90
15262;DHT22;7733;51.554;13.590;2023-12-14T03:46:35;6.70;99.90
15262;DHT22;7733;51.554;13.590;2023-12-14T03:49:02;6.70;99.90
15262;DHT22;7733;51.554;13.590;2023-12-14T03:51:29;6.70;99.90
15262;DHT22;7733;51.554;13.590;2023-12-14T03:53:55;6.70;99.90
15262;DHT22;7733;51.554;13.590;2023-12-14T03:56:21;6.80;99.90
15262;DHT22;7733;51.554;13.590;2023-12-14T03:58:47;6.90;99.90
15262;DHT22;7733;51.554;13.590;2023-12-14T04:01:20;6.80;99.90
15262;DHT22;7733;51.554;13.590;2023-12-14T04:03:47;6.80;99.90
15262;DHT22;7733;51.554;13.590;2023-12-14T04:06:13;6.80;99.90
15262;DHT22;7733;51.554;13.590;2023-12-14T04:08:42;6.70;99.90
15262;DHT22;7733;51.554;13.590;2023-12-14T04:11:09;6.60;99.90
15262;DHT22;7733;51.554;13.590;2023-12-14T04:13:35;6.60;99.90
15262;DHT22;7733;51.554;13.590;2023-12-14T04:16:00;6.60;99.90
15262;DHT22;7733;51.554;13.590;2023-12-14T04:18:26;6.60;99.90
15262;DHT22;7733;51.554;13.590;2023-12-14T04:20:52;6.50;99.90
15262;DHT22;7733;51.554;13.590;2023-12-14T04:23:18;6.60;99.90
15262;DHT22;7733;51.554;13.590;2023-12-14T04:25:44;6.50;99.90
15262;DHT22;7733;51.554;13.590;2023-12-14T04:28:10;6.50;99.90
15262;DHT22;7733;51.554;13.590;2023-12-14T04:30:36;6.40;99.90
15262;DHT22;7733;51.554;13.590;2023-12-14T04:33:01;6.40;99.90
15262;DHT22;7733;51.554;13.590;2023-12-14T04:35:27;6.40;99.90
15262;DHT22;7733;51.554;13.590;2023-12-14T04:37:53;6.40;99.90
15262;DHT22;7733;51.554;13.590;2023-12-14T04:40:18;6.40;99.90
15262;DHT22;7733;51.554;13.590;2023-12-14T04:42:44;6.30;99.90
15262;DHT22;7733;51.554;13.590;2023-12-14T04:45:10;6.30;99.90
15262;DHT22;7733;51.554;13.590;2023-12-14T04:47:36;6.30;99.90
15262;DHT22;7733;51.554;13.590;2023-12-14T04:50:03;6.30;99.90
15262;DHT22;7733;51.554;13.590;2023-12-14T04:52:29;6.30;99.90
15262;DHT22;7733;51.554;13.590;2023-12-14T04:54:54;6.30;99.90
15262;DHT22;7733;51.554;13.590;2023-12-14T04:57:20;6.30;99.90
15262;DHT22;7733;51.554;13.590;2023-12-14T04:59:46;6.40;99.90
15262;DHT22;7733;51.554;13.590;2023-12-14T05:02:11;6.40;99.90
15262;DHT22;7733;51.554;13.590;2023-12-14T05:04:37;6.40;99.90
15262;DHT22;7733;51.554;13.590;2023-12-14T05:07:03;6.40;99.90
15262;DHT22;7733;51.554;13.590;2023-12-14T05:09:29;6.40;99.90
15262;DHT22;7733;51.554;13.590;2023-12-14T05:11:55;6.40;99.90
15262;DHT22;7733;51.554;13.590;2023-12-14T05:14:21;6.40;99.90
15262;DHT22;7733;51.554;13.590;2023-12-14T05:16:46;6.30;99.90
15262;DHT22;7733;51.554;13.590;2023-12-14T05:19:12;6.30;99.90
15262;DHT22;7733;51.554;13.590;2023-12-14T05:21:38;6.10;99.90
15262;DHT22;7733;51.554;13.590;2023-12-14T05:24:05;6.10;99.90
15262;DHT22;7733;51.554;13.590;2023-12-14T05:26:31;6.10;99.90
15262;DHT22;7733;51.554;13.590;2023-12-14T05:28:57;6.10;99.90
15262;DHT22;7733;51.554;13.590;2023-12-14T05:31:22;6.10;99.90
15262;DHT22;7733;51.554;13.590;2023-12-14T05:33:48;6.20;99.90
15262;DHT22;7733;51.554;13.590;2023-12-14T05:36:14;6.10;99.90
15262;DHT22;7733;51.554;13.590;2023-12-14T05:38:41;6.00;99.90
15262;DHT22;7733;51.554;13.590;2023-12-14T05:41:07;6.00;99.90
15262;DHT22;7733;51.554;13.590;2023-12-14T05:43:33;6.00;99.90
15262;DHT22;7733;51.554;13.590;2023-12-14T05:45:59;6.00;99.90
15262;DHT22;7733;51.554;13.590;2023-12-14T05:48:25;5.90;99.90
15262;DHT22;7733;51.554;13.590;2023-12-14T05:50:54;5.90;99.90
15262;DHT22;7733;51.554;13.590;2023-12-14T05:53:19;5.90;99.90
15262;DHT22;7733;51.554;13.590;2023-12-14T05:55:45;5.90;99.90
15262;DHT22;7733;51.554;13.590;2023-12-14T05:58:11;5.90;99.90
15262;DHT22;7733;51.554;13.590;2023-12-14T06:00:37;5.90;99.90
15262;DHT22;7733;51.554;13.590;2023-12-14T06:03:03;6.00;99.90
15262;DHT22;7733;51.554;13.590;2023-12-14T06:05:28;5.90;99.90
15262;DHT22;7733;51.554;13.590;2023-12-14T06:07:55;5.80;99.90
15262;DHT22;7733;51.554;13.590;2023-12-14T06:10:21;5.90;99.90
15262;DHT22;7733;51.554;13.590;2023-12-14T06:12:48;5.80;99.90
15262;DHT22;7733;51.554;13.590;2023-12-14T06:15:13;5.90;99.90
15262;DHT22;7733;51.554;13.590;2023-12-14T06:17:39;5.90;99.90
15262;DHT22;7733;51.554;13.590;2023-12-14T06:20:08;5.90;99.90
15262;DHT22;7733;51.554;13.590;2023-12-14T06:22:36;5.90;99.90
15262;DHT22;7733;51.554;13.590;2023-12-14T06:25:02;5.80;99.90
15262;DHT22;7733;51.554;13.590;2023-12-14T06:27:29;5.90;99.90
15262;DHT22;7733;51.554;13.590;2023-12-14T06:29:55;5.90;99.90
15262;DHT22;7733;51.554;13.590;2023-12-14T06:32:21;5.90;99.90
15262;DHT22;7733;51.554;13.590;2023-12-14T06:34:47;5.90;99.90
15262;DHT22;7733;51.554;13.590;2023-12-14T06:37:13;5.80;99.90
15262;DHT22;7733;51.554;13.590;2023-12-14T06:39:40;5.70;99.90
15262;DHT22;7733;51.554;13.590;2023-12-14T06:42:06;5.70;99.90
15262;DHT22;7733;51.554;13.590;2023-12-14T06:44:32;5.70;99.90
15262;DHT22;7733;51.554;13.590;2023-12-14T06:46:58;5.70;99.90
15262;DHT22;7733;51.554;13.590;2023-12-14T06:49:25;5.70;99.90
15262;DHT22;7733;51.554;13.590;2023-12-14T06:51:51;5.70;99.90
15262;DHT22;7733;51.554;13.590;2023-12-14T06:54:17;5.60;99.90
15262;DHT22;7733;51.554;13.590;2023-12-14T06:56:43;5.60;99.90
15262;DHT22;7733;51.554;13.590;2023-12-14T06:59:08;5.70;99.90
15262;DHT22;7733;51.554;13.590;2023-12-14T07:01:34;5.60;99.90
15262;DHT22;7733;51.554;13.590;2023-12-14T07:04:00;5.60;99.90
15262;DHT22;7733;51.554;13.590;2023-12-14T07:06:28;5.60;99.90
15262;DHT22;7733;51.554;13.590;2023-12-14T07:08:54;5.50;99.90
15262;DHT22;7733;51.554;13.590;2023-12-14T07:11:19;5.50;99.90
15262;DHT22;7733;51.554;13.590;2023-12-14T07:13:45;5.40;99.90
15262;DHT22;7733;51.554;13.590;2023-12-14T07:16:12;5.40;99.90
15262;DHT22;7733;51.554;13.590;2023-12-14T07:18:39;5.60;99.90
15262;DHT22;7733;51.554;13.590;2023-12-14T07:21:07;5.60;99.90
15262;DHT22;7733;51.554;13.590;2023-12-14T07:23:34;5.70;99.90
15262;DHT22;7733;51.554;13.590;2023-12-14T07:26:01;5.60;99.90
15262;DHT22;7733;51.554;13.590;2023-12-14T07:28:29;5.70;99.90
15262;DHT22;7733;51.554;13.590;2023-12-14T07:30:55;5.60;99.90
15262;DHT22;7733;51.554;13.590;2023-12-14T07:33:21;5.60;99.90
15262;DHT22;7733;51.554;13.590;2023-12-14T07:35:47;5.60;99.90
15262;DHT22;7733;51.554;13.590;2023-12-14T07:38:13;5.60;99.90
15262;DHT22;7733;51.554;13.590;2023-12-14T07:40:39;5.50;99.90
15262;DHT22;7733;51.554;13.590;2023-12-14T07:43:05;5.50;99.90
15262;DHT22;7733;51.554;13.590;2023-12-14T07:45:31;5.50;99.90
15262;DHT22;7733;51.554;13.590;2023-12-14T07:47:57;5.50;99.90
15262;DHT22;7733;51.554;13.590;2023-12-14T07:50:24;5.60;99.90
15262;DHT22;7733;51.554;13.590;2023-12-14T07:52:50;5.60;99.90
15262;DHT22;7733;51.554;13.590;2023-12-14T07:55:16;5.60;99.90
15262;DHT22;7733;51.554;13.590;2023-12-14T07:57:43;5.60;99.90
15262;DHT22;7733;51.554;13.590;2023-12-14T08:00:09;5.60;99.90
15262;DHT22;7733;51.554;13.590;2023-12-14T08:02:35;5.50;99.90
15262;DHT22;7733;51.554;13.590;2023-12-14T08:05:02;5.50;99.90
15262;DHT22;7733;51.554;13.590;2023-12-14T08:07:27;5.40;99.90
15262;DHT22;7733;51.554;13.590;2023-12-14T08:09:55;5.40;99.90
15262;DHT22;7733;51.554;13.590;2023-12-14T08:12:22;5.40;99.90
15262;DHT22;7733;51.554;13.590;2023-12-14T08:14:48;5.50;99.90
15262;DHT22;7733;51.554;13.590;2023-12-14T08:17:14;5.60;99.90
15262;DHT22;7733;51.554;13.590;2023-12-14T08:19:40;5.50;99.90
15262;DHT22;7733;51.554;13.590;2023-12-14T08:22:06;5.50;99.90
15262;DHT22;7733;51.554;13.590;2023-12-14T08:24:33;5.40;99.90
15262;DHT22;7733;51.554;13.590;2023-12-14T08:26:58;5.40;99.90
15262;DHT22;7733;51.554;13.590;2023-12-14T08:29:24;5.50;99.90
15262;DHT22;7733;51.554;13.590;2023-12-14T08:31:50;5.40;99.90
15262;DHT22;7733;51.554;13.590;2023-12-14T08:34:16;5.40;99.90
15262;DHT22;7733;51.554;13.590;2023-12-14T08:36:41;5.30;99.90
15262;DHT22;7733;51.554;13.590;2023-12-14T08:39:07;5.30;99.90
15262;DHT22;7733;51.554;13.590;2023-12-14T08:41:33;5.20;99.90
15262;DHT22;7733;51.554;13.590;2023-12-14T08:43:58;5.20;99.90
15262;DHT22;7733;51.554;13.590;2023-12-14T08:46:24;5.20;99.90
15262;DHT22;7733;51.554;13.590;2023-12-14T08:48:50;5.20;99.90
15262;DHT22;7733;51.554;13.590;2023-12-14T08:51:16;5.10;99.90
15262;DHT22;7733;51.554;13.590;2023-12-14T08:53:42;5.10;99.90
15262;DHT22;7733;51.554;13.590;2023-12-14T08:56:09;5.10;99.90
15262;DHT22;7733;51.554;13.590;2023-12-14T08:58:34;5.20;99.90
15262;DHT22;7733;51.554;13.590;2023-12-14T09:01:01;5.10;99.90
15262;DHT22;7733;51.554;13.590;2023-12-14T09:03:26;5.10;99.90
15262;DHT22;7733;51.554;13.590;2023-12-14T09:05:52;5.00;99.90
15262;DHT22;7733;51.554;13.590;2023-12-14T09:08:18;5.00;99.90
15262;DHT22;7733;51.554;13.590;2023-12-14T09:10:44;5.10;99.90
15262;DHT22;7733;51.554;13.590;2023-12-14T09:13:10;5.00;99.90
15262;DHT22;7733;51.554;13.590;2023-12-14T09:15:36;5.00;99.90
15262;DHT22;7733;51.554;13.590;2023-12-14T09:18:02;5.00;99.90
15262;DHT22;7733;51.554;13.590;2023-12-14T09:20:28;5.00;99.90
15262;DHT22;7733;51.554;13.590;2023-12-14T09:22:54;5.10;99.90
15262;DHT22;7733;51.554;13.590;2023-12-14T09:25:19;5.20;99.90
15262;DHT22;7733;51.554;13.590;2023-12-14T09:27:46;5.20;99.90
15262;DHT22;7733;51.554;13.590;2023-12-14T09:30:12;5.10;99.90
15262;DHT22;7733;51.554;13.590;2023-12-14T09:32:38;5.10;99.90
15262;DHT22;7733;51.554;13.590;2023-12-14T09:35:05;5.00;99.90
15262;DHT22;7733;51.554;13.590;2023-12-14T09:37:32;5.00;99.90
15262;DHT22;7733;51.554;13.590;2023-12-14T09:39:57;5.00;99.90
15262;DHT22;7733;51.554;13.590;2023-12-14T09:42:24;5.00;99.90
15262;DHT22;7733;51.554;13.590;2023-12-14T09:44:51;5.00;99.90
15262;DHT22;7733;51.554;13.590;2023-12-14T09:47:18;5.10;99.90
15262;DHT22;7733;51.554;13.590;2023-12-14T09:49:45;5.00;99.90
15262;DHT22;7733;51.554;13.590;2023-12-14T09:52:13;5.10;99.90
15262;DHT22;7733;51.554;13.590;2023-12-14T09:54:39;5.00;99.90
15262;DHT22;7733;51.554;13.590;2023-12-14T09:57:05;5.00;99.90
15262;DHT22;7733;51.554;13.590;2023-12-14T09:59:30;5.00;99.90
15262;DHT22;7733;51.554;13.590;2023-12-14T10:02:12;5.00;99.90
15262;DHT22;7733;51.554;13.590;2023-12-14T10:04:39;5.10;99.90
15262;DHT22;7733;51.554;13.590;2023-12-14T10:07:04;5.10;99.90
15262;DHT22;7733;51.554;13.590;2023-12-14T10:09:33;5.10;99.90
15262;DHT22;7733;51.554;13.590;2023-12-14T10:12:08;5.10;99.90
15262;DHT22;7733;51.554;13.590;2023-12-14T10:14:35;5.00;99.90
15262;DHT22;7733;51.554;13.590;2023-12-14T10:19:43;5.00;99.90
15262;DHT22;7733;51.554;13.590;2023-12-14T10:22:10;5.00;99.90
15262;DHT22;7733;51.554;13.590;2023-12-14T10:24:37;4.90;99.90
15262;DHT22;7733;51.554;13.590;2023-12-14T10:27:09;4.80;99.90
15262;DHT22;7733;51.554;13.590;2023-12-14T10:29:35;4.80;99.90
15262;DHT22;7733;51.554;13.590;2023-12-14T10:32:04;4.90;99.90
15262;DHT22;7733;51.554;13.590;2023-12-14T10:34:32;4.80;99.90
15262;DHT22;7733;51.554;13.590;2023-12-14T10:36:59;4.70;99.90
15262;DHT22;7733;51.554;13.590;2023-12-14T10:39:26;4.80;99.90
15262;DHT22;7733;51.554;13.590;2023-12-14T10:41:57;4.80;99.90
15262;DHT22;7733;51.554;13.590;2023-12-14T10:44:26;4.70;99.90
15262;DHT22;7733;51.554;13.590;2023-12-14T10:46:55;4.70;99.90
15262;DHT22;7733;51.554;13.590;2023-12-14T10:49:24;4.70;99.90
15262;DHT22;7733;51.554;13.590;2023-12-14T10:51:52;4.60;99.90
15262;DHT22;7733;51.554;13.590;2023-12-14T10:54:21;4.60;99.90
15262;DHT22;7733;51.554;13.590;2023-12-14T10:56:50;4.70;99.90
15262;DHT22;7733;51.554;13.590;2023-12-14T10:59:20;4.60;99.90
15262;DHT22;7733;51.554;13.590;2023-12-14T11:01:51;4.70;99.90
15262;DHT22;7733;51.554;13.590;2023-12-14T11:04:22;4.70;99.90
15262;DHT22;7733;51.554;13.590;2023-12-14T11:06:49;4.70;99.90
15262;DHT22;7733;51.554;13.590;2023-12-14T11:09:18;4.70;99.90
15262;DHT22;7733;51.554;13.590;2023-12-14T11:14:25;4.70;99.90
15262;DHT22;7733;51.554;13.590;2023-12-14T11:16:56;4.70;99.90
15262;DHT22;7733;51.554;13.590;2023-12-14T11:19:27;4.70;99.90
15262;DHT22;7733;51.554;13.590;2023-12-14T11:24:23;4.70;99.90
15262;DHT22;7733;51.554;13.590;2023-12-14T11:26:54;4.70;99.90
15262;DHT22;7733;51.554;13.590;2023-12-14T11:29:20;4.70;99.90
15262;DHT22;7733;51.554;13.590;2023-12-14T11:31:47;4.70;99.90
15262;DHT22;7733;51.554;13.590;2023-12-14T11:34:15;4.70;99.90
15262;DHT22;7733;51.554;13.590;2023-12-14T11:36:40;4.70;99.90
15262;DHT22;7733;51.554;13.590;2023-12-14T11:39:10;4.80;99.90
15262;DHT22;7733;51.554;13.590;2023-12-14T11:41:36;4.80;99.90
15262;DHT22;7733;51.554;13.590;2023-12-14T11:44:04;4.90;99.90
15262;DHT22;7733;51.554;13.590;2023-12-14T11:46:30;4.80;99.90
15262;DHT22;7733;51.554;13.590;2023-12-14T11:48:57;4.80;99.90
15262;DHT22;7733;51.554;13.590;2023-12-14T11:51:24;4.90;99.90
15262;DHT22;7733;51.554;13.590;2023-12-14T11:53:51;4.80;99.90
15262;DHT22;7733;51.554;13.590;2023-12-14T11:56:20;4.70;99.90
15262;DHT22;7733;51.554;13.590;2023-12-14T11:58:48;4.80;99.90
15262;DHT22;7733;51.554;13.590;2023-12-14T12:01:18;4.70;99.90
15262;DHT22;7733;51.554;13.590;2023-12-14T12:03:46;4.70;99.90
15262;DHT22;7733;51.554;13.590;2023-12-14T12:06:24;4.70;99.90
15262;DHT22;7733;51.554;13.590;2023-12-14T12:08:53;4.70;99.90
15262;DHT22;7733;51.554;13.590;2023-12-14T12:11:24;4.70;99.90
15262;DHT22;7733;51.554;13.590;2023-12-14T12:13:54;4.70;99.90
15262;DHT22;7733;51.554;13.590;2023-12-14T12:16:21;4.70;99.90
15262;DHT22;7733;51.554;13.590;2023-12-14T12:18:47;4.60;99.90
15262;DHT22;7733;51.554;13.590;2023-12-14T12:21:13;4.70;99.90
15262;DHT22;7733;51.554;13.590;2023-12-14T12:23:39;4.60;99.90
15262;DHT22;7733;51.554;13.590;2023-12-14T12:26:07;4.70;99.90
15262;DHT22;7733;51.554;13.590;2023-12-14T12:28:33;4.80;99.90
15262;DHT22;7733;51.554;13.590;2023-12-14T12:30:59;4.80;99.90
15262;DHT22;7733;51.554;13.590;2023-12-14T12:33:25;4.70;99.90
15262;DHT22;7733;51.554;13.590;2023-12-14T12:35:52;4.70;99.90
15262;DHT22;7733;51.554;13.590;2023-12-14T12:38:19;4.80;99.90
15262;DHT22;7733;51.554;13.590;2023-12-14T12:40:45;4.80;99.90
15262;DHT22;7733;51.554;13.590;2023-12-14T12:43:12;4.80;99.90
15262;DHT22;7733;51.554;13.590;2023-12-14T12:45:39;4.80;99.90
15262;DHT22;7733;51.554;13.590;2023-12-14T12:48:05;4.70;99.90
15262;DHT22;7733;51.554;13.590;2023-12-14T12:50:32;4.70;99.90
15262;DHT22;7733;51.554;13.590;2023-12-14T12:52:58;4.70;99.90
15262;DHT22;7733;51.554;13.590;2023-12-14T12:55:24;4.70;99.90
15262;DHT22;7733;51.554;13.590;2023-12-14T12:57:50;4.70;99.90
15262;DHT22;7733;51.554;13.590;2023-12-14T13:00:16;4.70;99.90
15262;DHT22;7733;51.554;13.590;2023-12-14T13:02:43;4.70;99.90
15262;DHT22;7733;51.554;13.590;2023-12-14T13:05:11;4.80;99.90
15262;DHT22;7733;51.554;13.590;2023-12-14T13:07:37;4.70;99.90
15262;DHT22;7733;51.554;13.590;2023-12-14T13:10:04;4.60;99.90
15262;DHT22;7733;51.554;13.590;2023-12-14T13:12:34;4.60;99.90
15262;DHT22;7733;51.554;13.590;2023-12-14T13:15:00;4.60;99.90
15262;DHT22;7733;51.554;13.590;2023-12-14T13:17:26;4.60;99.90
15262;DHT22;7733;51.554;13.590;2023-12-14T13:19:52;4.60;99.90
15262;DHT22;7733;51.554;13.590;2023-12-14T13:22:19;4.60;99.90
15262;DHT22;7733;51.554;13.590;2023-12-14T13:24:45;4.60;99.90
15262;DHT22;7733;51.554;13.590;2023-12-14T13:27:12;4.60;99.90
15262;DHT22;7733;51.554;13.590;2023-12-14T13:29:37;4.60;99.90
15262;DHT22;7733;51.554;13.590;2023-12-14T13:32:03;4.60;99.90
15262;DHT22;7733;51.554;13.590;2023-12-14T13:34:29;4.50;99.90
15262;DHT22;7733;51.554;13.590;2023-12-14T13:36:56;4.60;99.90
15262;DHT22;7733;51.554;13.590;2023-12-14T13:39:22;4.60;99.90
15262;DHT22;7733;51.554;13.590;2023-12-14T13:41:48;4.60;99.90
15262;DHT22;7733;51.554;13.590;2023-12-14T13:44:14;4.60;99.90
15262;DHT22;7733;51.554;13.590;2023-12-14T13:46:40;4.60;99.90
15262;DHT22;7733;51.554;13.590;2023-12-14T13:49:06;4.50;99.90
15262;DHT22;7733;51.554;13.590;2023-12-14T13:51:32;4.60;99.90
15262;DHT22;7733;51.554;13.590;2023-12-14T13:53:58;4.60;99.90
15262;DHT22;7733;51.554;13.590;2023-12-14T13:56:23;4.60;99.90
15262;DHT22;7733;51.554;13.590;2023-12-14T13:58:49;4.70;99.90
15262;DHT22;7733;51.554;13.590;2023-12-14T14:01:15;4.70;99.90
15262;DHT22;7733;51.554;13.590;2023-12-14T14:03:41;4.70;99.90
15262;DHT22;7733;51.554;13.590;2023-12-14T14:06:08;4.70;99.90
15262;DHT22;7733;51.554;13.590;2023-12-14T14:08:34;4.70;99.90
15262;DHT22;7733;51.554;13.590;2023-12-14T14:11:01;4.70;99.90
15262;DHT22;7733;51.554;13.590;2023-12-14T14:13:27;4.70;99.90
15262;DHT22;7733;51.554;13.590;2023-12-14T14:15:54;4.80;99.90
15262;DHT22;7733;51.554;13.590;2023-12-14T14:18:20;4.70;99.90
15262;DHT22;7733;51.554;13.590;2023-12-14T14:20:46;4.70;99.90
15262;DHT22;7733;51.554;13.590;2023-12-14T14:23:11;4.70;99.90
15262;DHT22;7733;51.554;13.590;2023-12-14T14:25:37;4.70;99.90
15262;DHT22;7733;51.554;13.590;2023-12-14T14:28:03;4.70;99.90
15262;DHT22;7733;51.554;13.590;2023-12-14T14:30:29;4.70;99.90
15262;DHT22;7733;51.554;13.590;2023-12-14T14:32:55;4.80;99.90
15262;DHT22;7733;51.554;13.590;2023-12-14T14:35:22;4.70;99.90
15262;DHT22;7733;51.554;13.590;2023-12-14T14:37:49;4.70;99.90
15262;DHT22;7733;51.554;13.590;2023-12-14T14:40:16;4.60;99.90
15262;DHT22;7733;51.554;13.590;2023-12-14T14:42:42;4.60;99.90
15262;DHT22;7733;51.554;13.590;2023-12-14T14:45:10;4.60;99.90
15262;DHT22;7733;51.554;13.590;2023-12-14T14:47:37;4.70;99.90
15262;DHT22;7733;51.554;13.590;2023-12-14T14:50:05;4.70;99.90
15262;DHT22;7733;51.554;13.590;2023-12-14T14:52:32;4.60;99.90
15262;DHT22;7733;51.554;13.590;2023-12-14T14:55:00;4.70;99.90
15262;DHT22;7733;51.554;13.590;2023-12-14T14:57:26;4.70;99.90
15262;DHT22;7733;51.554;13.590;2023-12-14T14:59:52;4.60;99.90
15262;DHT22;7733;51.554;13.590;2023-12-14T15:02:18;4.60;99.90
15262;DHT22;7733;51.554;13.590;2023-12-14T15:04:45;4.60;99.90
15262;DHT22;7733;51.554;13.590;2023-12-14T15:07:10;4.60;99.90
15262;DHT22;7733;51.554;13.590;2023-12-14T15:09:36;4.60;99.90
15262;DHT22;7733;51.554;13.590;2023-12-14T15:12:02;4.70;99.90
15262;DHT22;7733;51.554;13.590;2023-12-14T15:14:28;4.60;99.90
15262;DHT22;7733;51.554;13.590;2023-12-14T15:16:54;4.60;99.90
15262;DHT22;7733;51.554;13.590;2023-12-14T15:19:20;4.70;99.90
15262;DHT22;7733;51.554;13.590;2023-12-14T15:21:46;4.60;99.90
15262;DHT22;7733;51.554;13.590;2023-12-14T15:24:12;4.70;99.90
15262;DHT22;7733;51.554;13.590;2023-12-14T15:26:38;4.70;99.90
15262;DHT22;7733;51.554;13.590;2023-12-14T15:29:06;4.70;99.90
15262;DHT22;7733;51.554;13.590;2023-12-14T15:31:32;4.70;99.90
15262;DHT22;7733;51.554;13.590;2023-12-14T15:33:58;4.70;99.90
15262;DHT22;7733;51.554;13.590;2023-12-14T15:36:25;4.70;99.90
15262;DHT22;7733;51.554;13.590;2023-12-14T15:38:50;4.80;99.90
15262;DHT22;7733;51.554;13.590;2023-12-14T15:41:16;4.80;99.90
15262;DHT22;7733;51.554;13.590;2023-12-14T15:43:42;4.80;99.90
15262;DHT22;7733;51.554;13.590;2023-12-14T15:46:08;4.90;99.90
15262;DHT22;7733;51.554;13.590;2023-12-14T15:48:34;4.80;99.90